sensor_id;sensor_type;location;lat;lon;timestamp;P1;durP1;ratioP1;P2;durP2;ratioP2
966;SDS011;56108;48.730;9.304;2023-04-25T00:00:16;5.80;;;5.40;;
966;SDS011;56108;48.730;9.304;2023-04-25T00:02:24;5.90;;;5.35;;
966;SDS011;56108;48.730;9.304;2023-04-25T00:04:33;5.00;;;4.60;;
966;SDS011;56108;48.730;9.304;2023-04-25T00:06:43;4.90;;;4.50;;
966;SDS011;56108;48.730;9.304;2023-04-25T00:08:52;5.68;;;5.20;;
966;SDS011;56108;48.730;9.304;2023-04-25T00:11:01;6.65;;;4.68;;
966;SDS011;56108;48.730;9.304;2023-04-25T00:13:08;4.97;;;4.47;;
966;SDS011;56108;48.730;9.304;2023-04-25T00:15:19;4.80;;;4.40;;
966;SDS011;56108;48.730;9.304;2023-04-25T00:17:29;4.75;;;4.25;;
966;SDS011;56108;48.730;9.304;2023-04-25T00:19:37;4.35;;;4.00;;
966;SDS011;56108;48.730;9.304;2023-04-25T00:21:45;5.07;;;4.60;;
966;SDS011;56108;48.730;9.304;2023-04-25T00:23:53;4.93;;;4.53;;
966;SDS011;56108;48.730;9.304;2023-04-25T00:26:02;5.30;;;4.35;;
966;SDS011;56108;48.730;9.304;2023-04-25T00:28:11;5.40;;;4.90;;
966;SDS011;56108;48.730;9.304;2023-04-25T00:30:22;4.68;;;4.28;;
966;SDS011;56108;48.730;9.304;2023-04-25T00:32:30;4.50;;;4.20;;
966;SDS011;56108;48.730;9.304;2023-04-25T00:34:38;4.68;;;4.20;;
966;SDS011;56108;48.730;9.304;2023-04-25T00:36:46;4.97;;;4.57;;
966;SDS011;56108;48.730;9.304;2023-04-25T00:38:54;5.80;;;4.63;;
966;SDS011;56108;48.730;9.304;2023-04-25T00:41:02;4.35;;;4.05;;
966;SDS011;56108;48.730;9.304;2023-04-25T00:43:10;4.72;;;4.38;;
966;SDS011;56108;48.730;9.304;2023-04-25T00:45:18;4.50;;;4.13;;
966;SDS011;56108;48.730;9.304;2023-04-25T00:47:30;5.45;;;4.95;;
966;SDS011;56108;48.730;9.304;2023-04-25T00:49:39;5.47;;;4.97;;
966;SDS011;56108;48.730;9.304;2023-04-25T00:51:49;5.90;;;4.70;;
966;SDS011;56108;48.730;9.304;2023-04-25T00:53:57;5.45;;;5.03;;
966;SDS011;56108;48.730;9.304;2023-04-25T00:56:06;6.22;;;5.72;;
966;SDS011;56108;48.730;9.304;2023-04-25T00:58:14;4.88;;;4.47;;
966;SDS011;56108;48.730;9.304;2023-04-25T01:00:23;5.38;;;4.88;;
966;SDS011;56108;48.730;9.304;2023-04-25T01:02:34;5.53;;;5.03;;
966;SDS011;56108;48.730;9.304;2023-04-25T01:04:45;5.88;;;5.32;;
966;SDS011;56108;48.730;9.304;2023-04-25T01:06:54;6.45;;;5.85;;
966;SDS011;56108;48.730;9.304;2023-04-25T01:09:02;6.03;;;5.53;;
966;SDS011;56108;48.730;9.304;2023-04-25T01:11:12;5.10;;;4.70;;
966;SDS011;56108;48.730;9.304;2023-04-25T01:13:20;5.60;;;5.10;;
966;SDS011;56108;48.730;9.304;2023-04-25T01:15:29;5.55;;;4.68;;
966;SDS011;56108;48.730;9.304;2023-04-25T01:17:40;5.57;;;5.15;;
966;SDS011;56108;48.730;9.304;2023-04-25T01:19:48;5.88;;;5.43;;
966;SDS011;56108;48.730;9.304;2023-04-25T01:21:59;5.68;;;5.13;;
966;SDS011;56108;48.730;9.304;2023-04-25T01:24:08;7.22;;;6.18;;
966;SDS011;56108;48.730;9.304;2023-04-25T01:26:16;6.28;;;5.78;;
966;SDS011;56108;48.730;9.304;2023-04-25T01:28:26;6.85;;;6.20;;
966;SDS011;56108;48.730;9.304;2023-04-25T01:30:35;6.32;;;5.80;;
966;SDS011;56108;48.730;9.304;2023-04-25T01:32:43;7.03;;;5.10;;
966;SDS011;56108;48.730;9.304;2023-04-25T01:34:52;5.95;;;5.38;;
966;SDS011;56108;48.730;9.304;2023-04-25T01:37:02;5.90;;;5.40;;
966;SDS011;56108;48.730;9.304;2023-04-25T01:39:10;6.35;;;5.75;;
966;SDS011;56108;48.730;9.304;2023-04-25T01:41:19;6.57;;;5.85;;
966;SDS011;56108;48.730;9.304;2023-04-25T01:43:27;6.65;;;6.05;;
966;SDS011;56108;48.730;9.304;2023-04-25T01:45:36;6.63;;;6.03;;
966;SDS011;56108;48.730;9.304;2023-04-25T01:47:47;6.40;;;5.80;;
966;SDS011;56108;48.730;9.304;2023-04-25T01:49:56;5.93;;;5.43;;
966;SDS011;56108;48.730;9.304;2023-04-25T01:52:07;6.32;;;5.55;;
966;SDS011;56108;48.730;9.304;2023-04-25T01:54:15;6.05;;;5.55;;
966;SDS011;56108;48.730;9.304;2023-04-25T01:56:23;9.75;;;6.20;;
966;SDS011;56108;48.730;9.304;2023-04-25T01:58:31;6.85;;;6.15;;
966;SDS011;56108;48.730;9.304;2023-04-25T02:00:39;6.10;;;5.60;;
966;SDS011;56108;48.730;9.304;2023-04-25T02:02:48;6.30;;;5.80;;
966;SDS011;56108;48.730;9.304;2023-04-25T02:05:04;6.40;;;5.90;;
966;SDS011;56108;48.730;9.304;2023-04-25T02:07:18;5.88;;;5.40;;
966;SDS011;56108;48.730;9.304;2023-04-25T02:09:29;6.38;;;5.88;;
966;SDS011;56108;48.730;9.304;2023-04-25T02:11:42;5.82;;;5.32;;
966;SDS011;56108;48.730;9.304;2023-04-25T02:14:04;7.95;;;5.40;;
966;SDS011;56108;48.730;9.304;2023-04-25T02:16:24;5.22;;;4.82;;
966;SDS011;56108;48.730;9.304;2023-04-25T02:18:32;5.68;;;5.07;;
966;SDS011;56108;48.730;9.304;2023-04-25T02:20:43;4.10;;;3.80;;
966;SDS011;56108;48.730;9.304;2023-04-25T02:22:55;4.85;;;4.45;;
966;SDS011;56108;48.730;9.304;2023-04-25T02:25:05;4.95;;;4.55;;
966;SDS011;56108;48.730;9.304;2023-04-25T02:27:14;3.45;;;3.15;;
966;SDS011;56108;48.730;9.304;2023-04-25T02:29:22;3.78;;;3.47;;
966;SDS011;56108;48.730;9.304;2023-04-25T02:31:30;3.90;;;3.60;;
966;SDS011;56108;48.730;9.304;2023-04-25T02:33:38;4.68;;;3.60;;
966;SDS011;56108;48.730;9.304;2023-04-25T02:35:55;3.95;;;3.72;;
966;SDS011;56108;48.730;9.304;2023-04-25T02:38:05;4.60;;;3.80;;
966;SDS011;56108;48.730;9.304;2023-04-25T02:40:13;3.92;;;3.63;;
966;SDS011;56108;48.730;9.304;2023-04-25T02:42:21;4.50;;;4.10;;
966;SDS011;56108;48.730;9.304;2023-04-25T02:44:29;3.80;;;3.50;;
966;SDS011;56108;48.730;9.304;2023-04-25T02:46:37;4.07;;;3.75;;
966;SDS011;56108;48.730;9.304;2023-04-25T02:48:45;4.00;;;3.70;;
966;SDS011;56108;48.730;9.304;2023-04-25T02:50:53;4.25;;;3.95;;
966;SDS011;56108;48.730;9.304;2023-04-25T02:53:02;4.65;;;4.18;;
966;SDS011;56108;48.730;9.304;2023-04-25T02:55:18;3.75;;;3.45;;
966;SDS011;56108;48.730;9.304;2023-04-25T02:57:29;4.30;;;4.00;;
966;SDS011;56108;48.730;9.304;2023-04-25T02:59:37;4.05;;;3.75;;
966;SDS011;56108;48.730;9.304;2023-04-25T03:01:45;4.50;;;4.20;;
966;SDS011;56108;48.730;9.304;2023-04-25T03:03:53;5.50;;;5.00;;
966;SDS011;56108;48.730;9.304;2023-04-25T03:06:02;4.57;;;4.18;;
966;SDS011;56108;48.730;9.304;2023-04-25T03:08:10;5.85;;;4.70;;
966;SDS011;56108;48.730;9.304;2023-04-25T03:10:23;4.05;;;3.75;;
966;SDS011;56108;48.730;9.304;2023-04-25T03:12:31;6.30;;;4.63;;
966;SDS011;56108;48.730;9.304;2023-04-25T03:14:41;4.88;;;4.45;;
966;SDS011;56108;48.730;9.304;2023-04-25T03:16:49;5.18;;;4.72;;
966;SDS011;56108;48.730;9.304;2023-04-25T03:18:57;4.90;;;4.50;;
966;SDS011;56108;48.730;9.304;2023-04-25T03:21:05;5.03;;;4.45;;
966;SDS011;56108;48.730;9.304;2023-04-25T03:23:13;4.50;;;4.18;;
966;SDS011;56108;48.730;9.304;2023-04-25T03:25:25;5.88;;;5.38;;
966;SDS011;56108;48.730;9.304;2023-04-25T03:27:33;5.53;;;5.03;;
966;SDS011;56108;48.730;9.304;2023-04-25T03:29:42;5.00;;;4.60;;
966;SDS011;56108;48.730;9.304;2023-04-25T03:31:50;5.25;;;4.70;;
966;SDS011;56108;48.730;9.304;2023-04-25T03:33:58;6.10;;;5.60;;
966;SDS011;56108;48.730;9.304;2023-04-25T03:36:07;5.75;;;5.20;;
966;SDS011;56108;48.730;9.304;2023-04-25T03:38:16;4.95;;;4.50;;
966;SDS011;56108;48.730;9.304;2023-04-25T03:40:27;5.22;;;4.82;;
966;SDS011;56108;48.730;9.304;2023-04-25T03:42:47;6.85;;;5.25;;
966;SDS011;56108;48.730;9.304;2023-04-25T03:44:55;5.50;;;5.00;;
966;SDS011;56108;48.730;9.304;2023-04-25T03:47:03;4.75;;;4.32;;
966;SDS011;56108;48.730;9.304;2023-04-25T03:49:11;4.30;;;4.00;;
966;SDS011;56108;48.730;9.304;2023-04-25T03:51:37;6.28;;;5.03;;
966;SDS011;56108;48.730;9.304;2023-04-25T03:53:46;5.18;;;4.70;;
966;SDS011;56108;48.730;9.304;2023-04-25T03:56:27;5.80;;;5.30;;
966;SDS011;56108;48.730;9.304;2023-04-25T03:58:43;5.78;;;5.28;;
966;SDS011;56108;48.730;9.304;2023-04-25T04:00:54;5.30;;;4.85;;
966;SDS011;56108;48.730;9.304;2023-04-25T04:03:02;5.10;;;4.70;;
966;SDS011;56108;48.730;9.304;2023-04-25T04:05:11;5.55;;;5.05;;
966;SDS011;56108;48.730;9.304;2023-04-25T04:07:26;5.15;;;4.68;;
966;SDS011;56108;48.730;9.304;2023-04-25T04:09:35;5.13;;;4.72;;
966;SDS011;56108;48.730;9.304;2023-04-25T04:11:54;5.10;;;4.60;;
966;SDS011;56108;48.730;9.304;2023-04-25T04:14:02;5.70;;;5.30;;
966;SDS011;56108;48.730;9.304;2023-04-25T04:16:10;5.10;;;4.70;;
966;SDS011;56108;48.730;9.304;2023-04-25T04:18:20;5.38;;;4.93;;
966;SDS011;56108;48.730;9.304;2023-04-25T04:20:28;5.50;;;4.88;;
966;SDS011;56108;48.730;9.304;2023-04-25T04:22:37;5.50;;;5.00;;
966;SDS011;56108;48.730;9.304;2023-04-25T04:24:48;5.32;;;4.82;;
966;SDS011;56108;48.730;9.304;2023-04-25T04:27:23;4.95;;;4.32;;
966;SDS011;56108;48.730;9.304;2023-04-25T04:29:43;5.35;;;4.95;;
966;SDS011;56108;48.730;9.304;2023-04-25T04:32:02;5.90;;;5.50;;
966;SDS011;56108;48.730;9.304;2023-04-25T04:34:11;5.22;;;4.78;;
966;SDS011;56108;48.730;9.304;2023-04-25T04:36:21;5.25;;;4.85;;
966;SDS011;56108;48.730;9.304;2023-04-25T04:38:31;5.85;;;5.35;;
966;SDS011;56108;48.730;9.304;2023-04-25T04:40:44;4.63;;;4.22;;
966;SDS011;56108;48.730;9.304;2023-04-25T04:43:01;5.82;;;5.32;;
966;SDS011;56108;48.730;9.304;2023-04-25T04:45:30;5.63;;;4.55;;
966;SDS011;56108;48.730;9.304;2023-04-25T04:47:58;5.80;;;5.20;;
966;SDS011;56108;48.730;9.304;2023-04-25T04:50:09;5.53;;;5.10;;
966;SDS011;56108;48.730;9.304;2023-04-25T04:52:45;5.70;;;5.20;;
966;SDS011;56108;48.730;9.304;2023-04-25T04:55:12;4.97;;;4.55;;
966;SDS011;56108;48.730;9.304;2023-04-25T04:57:46;5.60;;;5.18;;
966;SDS011;56108;48.730;9.304;2023-04-25T05:00:21;5.03;;;4.55;;
966;SDS011;56108;48.730;9.304;2023-04-25T05:03:08;6.18;;;5.40;;
966;SDS011;56108;48.730;9.304;2023-04-25T05:05:36;5.32;;;4.88;;
966;SDS011;56108;48.730;9.304;2023-04-25T05:08:08;4.80;;;4.40;;
966;SDS011;56108;48.730;9.304;2023-04-25T05:10:36;5.55;;;5.07;;
966;SDS011;56108;48.730;9.304;2023-04-25T05:12:56;6.10;;;5.50;;
966;SDS011;56108;48.730;9.304;2023-04-25T05:15:23;6.15;;;5.65;;
966;SDS011;56108;48.730;9.304;2023-04-25T05:17:43;7.38;;;4.93;;
966;SDS011;56108;48.730;9.304;2023-04-25T05:20:14;5.57;;;5.07;;
966;SDS011;56108;48.730;9.304;2023-04-25T05:22:42;6.07;;;5.55;;
966;SDS011;56108;48.730;9.304;2023-04-25T05:24:56;5.95;;;5.38;;
966;SDS011;56108;48.730;9.304;2023-04-25T05:27:30;6.80;;;5.38;;
966;SDS011;56108;48.730;9.304;2023-04-25T05:30:00;6.55;;;6.03;;
966;SDS011;56108;48.730;9.304;2023-04-25T05:32:25;5.95;;;4.85;;
966;SDS011;56108;48.730;9.304;2023-04-25T05:34:33;5.78;;;5.18;;
966;SDS011;56108;48.730;9.304;2023-04-25T05:36:46;5.60;;;5.20;;
966;SDS011;56108;48.730;9.304;2023-04-25T05:38:56;8.00;;;5.07;;
966;SDS011;56108;48.730;9.304;2023-04-25T05:41:29;7.20;;;5.03;;
966;SDS011;56108;48.730;9.304;2023-04-25T05:44:03;6.40;;;5.80;;
966;SDS011;56108;48.730;9.304;2023-04-25T05:46:27;6.10;;;5.60;;
966;SDS011;56108;48.730;9.304;2023-04-25T05:48:59;5.72;;;5.10;;
966;SDS011;56108;48.730;9.304;2023-04-25T05:51:38;5.85;;;5.35;;
966;SDS011;56108;48.730;9.304;2023-04-25T05:54:15;5.50;;;5.10;;
966;SDS011;56108;48.730;9.304;2023-04-25T05:56:23;5.50;;;5.10;;
966;SDS011;56108;48.730;9.304;2023-04-25T05:58:32;4.78;;;4.40;;
966;SDS011;56108;48.730;9.304;2023-04-25T06:00:41;5.13;;;4.68;;
966;SDS011;56108;48.730;9.304;2023-04-25T06:02:51;4.72;;;4.30;;
966;SDS011;56108;48.730;9.304;2023-04-25T06:05:02;4.63;;;4.22;;
966;SDS011;56108;48.730;9.304;2023-04-25T06:07:12;4.85;;;4.15;;
966;SDS011;56108;48.730;9.304;2023-04-25T06:09:20;5.10;;;4.60;;
966;SDS011;56108;48.730;9.304;2023-04-25T06:11:30;4.88;;;4.40;;
966;SDS011;56108;48.730;9.304;2023-04-25T06:13:40;5.60;;;4.03;;
966;SDS011;56108;48.730;9.304;2023-04-25T06:15:49;5.05;;;4.47;;
966;SDS011;56108;48.730;9.304;2023-04-25T06:17:57;3.95;;;3.65;;
966;SDS011;56108;48.730;9.304;2023-04-25T06:20:09;3.85;;;3.58;;
966;SDS011;56108;48.730;9.304;2023-04-25T06:22:18;4.45;;;4.05;;
966;SDS011;56108;48.730;9.304;2023-04-25T06:24:26;4.00;;;3.70;;
966;SDS011;56108;48.730;9.304;2023-04-25T06:26:34;3.85;;;3.55;;
966;SDS011;56108;48.730;9.304;2023-04-25T06:28:43;3.80;;;3.50;;
966;SDS011;56108;48.730;9.304;2023-04-25T06:30:52;5.03;;;4.63;;
966;SDS011;56108;48.730;9.304;2023-04-25T06:33:04;4.55;;;4.15;;
966;SDS011;56108;48.730;9.304;2023-04-25T06:35:17;4.70;;;3.92;;
966;SDS011;56108;48.730;9.304;2023-04-25T06:37:25;4.40;;;4.10;;
966;SDS011;56108;48.730;9.304;2023-04-25T06:39:33;4.25;;;3.95;;
966;SDS011;56108;48.730;9.304;2023-04-25T06:41:44;5.20;;;4.70;;
966;SDS011;56108;48.730;9.304;2023-04-25T06:44:13;4.32;;;3.92;;
966;SDS011;56108;48.730;9.304;2023-04-25T06:46:29;4.13;;;3.83;;
966;SDS011;56108;48.730;9.304;2023-04-25T06:48:37;5.57;;;4.20;;
966;SDS011;56108;48.730;9.304;2023-04-25T06:50:48;6.00;;;4.72;;
966;SDS011;56108;48.730;9.304;2023-04-25T06:52:56;4.00;;;3.65;;
966;SDS011;56108;48.730;9.304;2023-04-25T06:55:07;3.95;;;3.63;;
966;SDS011;56108;48.730;9.304;2023-04-25T06:57:38;5.30;;;4.90;;
966;SDS011;56108;48.730;9.304;2023-04-25T07:00:16;4.32;;;3.95;;
966;SDS011;56108;48.730;9.304;2023-04-25T07:02:25;4.28;;;3.72;;
966;SDS011;56108;48.730;9.304;2023-04-25T07:04:35;4.43;;;4.13;;
966;SDS011;56108;48.730;9.304;2023-04-25T07:06:48;4.38;;;4.07;;
966;SDS011;56108;48.730;9.304;2023-04-25T07:09:01;4.18;;;3.88;;
966;SDS011;56108;48.730;9.304;2023-04-25T07:11:11;3.70;;;3.30;;
966;SDS011;56108;48.730;9.304;2023-04-25T07:13:20;4.07;;;3.78;;
966;SDS011;56108;48.730;9.304;2023-04-25T07:15:30;4.00;;;3.70;;
966;SDS011;56108;48.730;9.304;2023-04-25T07:17:38;3.95;;;3.65;;
966;SDS011;56108;48.730;9.304;2023-04-25T07:19:49;4.50;;;4.10;;
966;SDS011;56108;48.730;9.304;2023-04-25T07:22:00;4.40;;;4.10;;
966;SDS011;56108;48.730;9.304;2023-04-25T07:24:12;3.80;;;3.50;;
966;SDS011;56108;48.730;9.304;2023-04-25T07:26:25;4.60;;;3.80;;
966;SDS011;56108;48.730;9.304;2023-04-25T07:28:56;3.80;;;3.50;;
966;SDS011;56108;48.730;9.304;2023-04-25T07:31:07;4.45;;;4.05;;
966;SDS011;56108;48.730;9.304;2023-04-25T07:33:15;4.60;;;4.20;;
966;SDS011;56108;48.730;9.304;2023-04-25T07:35:25;3.95;;;3.45;;
966;SDS011;56108;48.730;9.304;2023-04-25T07:37:36;3.97;;;3.67;;
966;SDS011;56108;48.730;9.304;2023-04-25T07:39:50;3.80;;;3.50;;
966;SDS011;56108;48.730;9.304;2023-04-25T07:41:58;4.40;;;4.10;;
966;SDS011;56108;48.730;9.304;2023-04-25T07:44:09;4.60;;;4.20;;
966;SDS011;56108;48.730;9.304;2023-04-25T07:46:20;4.30;;;4.00;;
966;SDS011;56108;48.730;9.304;2023-04-25T07:48:30;5.00;;;4.60;;
966;SDS011;56108;48.730;9.304;2023-04-25T07:50:39;5.20;;;4.70;;
966;SDS011;56108;48.730;9.304;2023-04-25T07:52:52;4.60;;;4.28;;
966;SDS011;56108;48.730;9.304;2023-04-25T07:55:10;5.07;;;4.68;;
966;SDS011;56108;48.730;9.304;2023-04-25T07:57:30;6.32;;;4.88;;
966;SDS011;56108;48.730;9.304;2023-04-25T07:59:40;4.50;;;4.10;;
966;SDS011;56108;48.730;9.304;2023-04-25T08:01:50;4.90;;;4.60;;
966;SDS011;56108;48.730;9.304;2023-04-25T08:03:58;5.57;;;5.10;;
966;SDS011;56108;48.730;9.304;2023-04-25T08:06:24;7.40;;;5.05;;
966;SDS011;56108;48.730;9.304;2023-04-25T08:08:44;5.13;;;4.72;;
966;SDS011;56108;48.730;9.304;2023-04-25T08:10:56;6.03;;;5.43;;
966;SDS011;56108;48.730;9.304;2023-04-25T08:13:04;6.07;;;5.57;;
966;SDS011;56108;48.730;9.304;2023-04-25T08:15:13;5.68;;;5.18;;
966;SDS011;56108;48.730;9.304;2023-04-25T08:17:21;6.63;;;6.00;;
966;SDS011;56108;48.730;9.304;2023-04-25T08:19:31;8.75;;;7.50;;
966;SDS011;56108;48.730;9.304;2023-04-25T08:21:40;9.38;;;8.32;;
966;SDS011;56108;48.730;9.304;2023-04-25T08:23:55;9.40;;;8.20;;
966;SDS011;56108;48.730;9.304;2023-04-25T08:26:10;8.80;;;7.90;;
966;SDS011;56108;48.730;9.304;2023-04-25T08:28:20;7.90;;;7.10;;
966;SDS011;56108;48.730;9.304;2023-04-25T08:30:31;10.68;;;8.32;;
966;SDS011;56108;48.730;9.304;2023-04-25T08:32:39;9.70;;;8.63;;
966;SDS011;56108;48.730;9.304;2023-04-25T08:35:10;8.90;;;7.82;;
966;SDS011;56108;48.730;9.304;2023-04-25T08:37:19;10.30;;;9.30;;
966;SDS011;56108;48.730;9.304;2023-04-25T08:39:37;7.65;;;6.88;;
966;SDS011;56108;48.730;9.304;2023-04-25T08:42:09;9.20;;;8.15;;
966;SDS011;56108;48.730;9.304;2023-04-25T08:44:20;7.45;;;6.75;;
966;SDS011;56108;48.730;9.304;2023-04-25T08:46:30;7.80;;;7.15;;
966;SDS011;56108;48.730;9.304;2023-04-25T08:48:50;7.07;;;6.47;;
966;SDS011;56108;48.730;9.304;2023-04-25T08:51:02;8.18;;;7.35;;
966;SDS011;56108;48.730;9.304;2023-04-25T08:53:16;7.20;;;6.50;;
966;SDS011;56108;48.730;9.304;2023-04-25T08:55:32;8.13;;;7.43;;
966;SDS011;56108;48.730;9.304;2023-04-25T08:57:41;9.38;;;8.48;;
966;SDS011;56108;48.730;9.304;2023-04-25T08:59:51;8.07;;;7.38;;
966;SDS011;56108;48.730;9.304;2023-04-25T09:02:05;7.55;;;6.90;;
966;SDS011;56108;48.730;9.304;2023-04-25T09:04:19;8.85;;;8.10;;
966;SDS011;56108;48.730;9.304;2023-04-25T09:06:29;8.35;;;7.45;;
966;SDS011;56108;48.730;9.304;2023-04-25T09:08:40;7.80;;;7.03;;
966;SDS011;56108;48.730;9.304;2023-04-25T09:10:51;7.15;;;6.50;;
966;SDS011;56108;48.730;9.304;2023-04-25T09:13:03;7.95;;;7.15;;
966;SDS011;56108;48.730;9.304;2023-04-25T09:15:34;7.60;;;6.82;;
966;SDS011;56108;48.730;9.304;2023-04-25T09:18:10;7.60;;;6.90;;
966;SDS011;56108;48.730;9.304;2023-04-25T09:20:22;6.72;;;6.03;;
966;SDS011;56108;48.730;9.304;2023-04-25T09:22:31;8.18;;;6.85;;
966;SDS011;56108;48.730;9.304;2023-04-25T09:24:40;8.85;;;7.88;;
966;SDS011;56108;48.730;9.304;2023-04-25T09:26:56;7.13;;;6.43;;
966;SDS011;56108;48.730;9.304;2023-04-25T09:29:06;7.55;;;6.75;;
966;SDS011;56108;48.730;9.304;2023-04-25T09:31:21;8.07;;;7.28;;
966;SDS011;56108;48.730;9.304;2023-04-25T09:33:34;9.35;;;8.05;;
966;SDS011;56108;48.730;9.304;2023-04-25T09:35:44;9.32;;;7.85;;
966;SDS011;56108;48.730;9.304;2023-04-25T09:38:15;8.98;;;8.07;;
966;SDS011;56108;48.730;9.304;2023-04-25T09:40:29;7.80;;;6.50;;
966;SDS011;56108;48.730;9.304;2023-04-25T09:42:51;7.38;;;6.68;;
966;SDS011;56108;48.730;9.304;2023-04-25T09:45:00;9.00;;;7.53;;
966;SDS011;56108;48.730;9.304;2023-04-25T09:47:15;8.13;;;7.35;;
966;SDS011;56108;48.730;9.304;2023-04-25T09:49:26;8.27;;;7.47;;
966;SDS011;56108;48.730;9.304;2023-04-25T09:51:40;8.55;;;7.07;;
966;SDS011;56108;48.730;9.304;2023-04-25T09:53:48;9.05;;;8.25;;
966;SDS011;56108;48.730;9.304;2023-04-25T09:56:17;7.53;;;6.82;;
966;SDS011;56108;48.730;9.304;2023-04-25T09:58:30;10.57;;;7.88;;
966;SDS011;56108;48.730;9.304;2023-04-25T10:00:38;7.88;;;7.18;;
966;SDS011;56108;48.730;9.304;2023-04-25T10:03:01;9.57;;;8.68;;
966;SDS011;56108;48.730;9.304;2023-04-25T10:05:32;8.52;;;7.72;;
966;SDS011;56108;48.730;9.304;2023-04-25T10:07:42;8.63;;;7.80;;
966;SDS011;56108;48.730;9.304;2023-04-25T10:09:55;7.78;;;7.05;;
966;SDS011;56108;48.730;9.304;2023-04-25T10:12:07;8.02;;;7.32;;
966;SDS011;56108;48.730;9.304;2023-04-25T10:14:18;7.65;;;6.95;;
966;SDS011;56108;48.730;9.304;2023-04-25T10:16:26;6.25;;;5.75;;
966;SDS011;56108;48.730;9.304;2023-04-25T10:18:36;7.70;;;6.60;;
966;SDS011;56108;48.730;9.304;2023-04-25T10:20:46;7.70;;;7.10;;
966;SDS011;56108;48.730;9.304;2023-04-25T10:22:58;6.10;;;5.60;;
966;SDS011;56108;48.730;9.304;2023-04-25T10:25:14;6.68;;;5.53;;
966;SDS011;56108;48.730;9.304;2023-04-25T10:27:26;6.60;;;6.10;;
966;SDS011;56108;48.730;9.304;2023-04-25T10:29:37;6.05;;;5.53;;
966;SDS011;56108;48.730;9.304;2023-04-25T10:31:46;5.60;;;5.20;;
966;SDS011;56108;48.730;9.304;2023-04-25T10:33:54;4.75;;;4.35;;
966;SDS011;56108;48.730;9.304;2023-04-25T10:36:12;4.38;;;3.97;;
966;SDS011;56108;48.730;9.304;2023-04-25T10:38:21;4.03;;;3.72;;
966;SDS011;56108;48.730;9.304;2023-04-25T10:40:31;4.90;;;4.20;;
966;SDS011;56108;48.730;9.304;2023-04-25T10:42:40;6.13;;;3.95;;
966;SDS011;56108;48.730;9.304;2023-04-25T10:45:04;3.25;;;3.05;;
966;SDS011;56108;48.730;9.304;2023-04-25T10:47:13;3.70;;;3.42;;
966;SDS011;56108;48.730;9.304;2023-04-25T10:50:07;3.53;;;3.33;;
966;SDS011;56108;48.730;9.304;2023-04-25T10:52:17;3.60;;;3.30;;
966;SDS011;56108;48.730;9.304;2023-04-25T10:54:34;3.00;;;2.80;;
966;SDS011;56108;48.730;9.304;2023-04-25T10:56:42;3.10;;;2.90;;
966;SDS011;56108;48.730;9.304;2023-04-25T10:58:51;3.20;;;2.90;;
966;SDS011;56108;48.730;9.304;2023-04-25T11:01:02;3.10;;;2.80;;
966;SDS011;56108;48.730;9.304;2023-04-25T11:03:10;3.00;;;2.80;;
966;SDS011;56108;48.730;9.304;2023-04-25T11:05:27;3.67;;;3.15;;
966;SDS011;56108;48.730;9.304;2023-04-25T11:07:51;3.30;;;3.05;;
966;SDS011;56108;48.730;9.304;2023-04-25T11:10:23;3.03;;;2.83;;
966;SDS011;56108;48.730;9.304;2023-04-25T11:12:32;3.65;;;3.35;;
966;SDS011;56108;48.730;9.304;2023-04-25T11:14:41;4.20;;;2.88;;
966;SDS011;56108;48.730;9.304;2023-04-25T11:16:55;4.40;;;4.00;;
966;SDS011;56108;48.730;9.304;2023-04-25T11:19:04;4.80;;;4.40;;
966;SDS011;56108;48.730;9.304;2023-04-25T11:21:13;5.30;;;4.90;;
966;SDS011;56108;48.730;9.304;2023-04-25T11:23:21;5.95;;;5.40;;
966;SDS011;56108;48.730;9.304;2023-04-25T11:25:29;7.20;;;5.53;;
966;SDS011;56108;48.730;9.304;2023-04-25T11:27:49;5.50;;;5.00;;
966;SDS011;56108;48.730;9.304;2023-04-25T11:29:57;4.68;;;4.20;;
966;SDS011;56108;48.730;9.304;2023-04-25T11:32:08;3.65;;;3.35;;
966;SDS011;56108;48.730;9.304;2023-04-25T11:34:17;4.13;;;3.80;;
966;SDS011;56108;48.730;9.304;2023-04-25T11:36:25;4.30;;;3.90;;
966;SDS011;56108;48.730;9.304;2023-04-25T11:38:35;5.38;;;3.67;;
966;SDS011;56108;48.730;9.304;2023-04-25T11:40:48;3.10;;;2.90;;
966;SDS011;56108;48.730;9.304;2023-04-25T11:42:59;3.17;;;2.97;;
966;SDS011;56108;48.730;9.304;2023-04-25T11:45:08;2.35;;;2.15;;
966;SDS011;56108;48.730;9.304;2023-04-25T11:47:19;3.13;;;2.53;;
966;SDS011;56108;48.730;9.304;2023-04-25T11:49:30;3.28;;;3.08;;
966;SDS011;56108;48.730;9.304;2023-04-25T11:51:39;2.15;;;1.95;;
966;SDS011;56108;48.730;9.304;2023-04-25T11:53:48;2.80;;;2.60;;
966;SDS011;56108;48.730;9.304;2023-04-25T11:55:56;2.13;;;2.03;;
966;SDS011;56108;48.730;9.304;2023-04-25T11:58:04;6.50;;;3.42;;
966;SDS011;56108;48.730;9.304;2023-04-25T12:00:13;3.60;;;3.30;;
966;SDS011;56108;48.730;9.304;2023-04-25T12:02:27;3.60;;;3.33;;
966;SDS011;56108;48.730;9.304;2023-04-25T12:04:35;3.63;;;3.30;;
966;SDS011;56108;48.730;9.304;2023-04-25T12:06:44;3.53;;;3.22;;
966;SDS011;56108;48.730;9.304;2023-04-25T12:09:00;3.28;;;3.00;;
966;SDS011;56108;48.730;9.304;2023-04-25T12:11:20;5.95;;;3.15;;
966;SDS011;56108;48.730;9.304;2023-04-25T12:13:28;3.15;;;2.95;;
966;SDS011;56108;48.730;9.304;2023-04-25T12:15:36;3.50;;;3.20;;
966;SDS011;56108;48.730;9.304;2023-04-25T12:17:51;3.60;;;3.33;;
966;SDS011;56108;48.730;9.304;2023-04-25T12:20:05;3.58;;;3.28;;
966;SDS011;56108;48.730;9.304;2023-04-25T12:22:19;3.72;;;3.42;;
966;SDS011;56108;48.730;9.304;2023-04-25T12:24:28;3.88;;;3.58;;
966;SDS011;56108;48.730;9.304;2023-04-25T12:26:50;3.70;;;3.40;;
966;SDS011;56108;48.730;9.304;2023-04-25T12:28:59;3.45;;;3.25;;
966;SDS011;56108;48.730;9.304;2023-04-25T12:31:07;4.93;;;3.60;;
966;SDS011;56108;48.730;9.304;2023-04-25T12:33:21;3.40;;;3.13;;
966;SDS011;56108;48.730;9.304;2023-04-25T12:35:30;2.85;;;2.65;;
966;SDS011;56108;48.730;9.304;2023-04-25T12:37:39;4.18;;;3.78;;
966;SDS011;56108;48.730;9.304;2023-04-25T12:39:47;3.80;;;3.50;;
966;SDS011;56108;48.730;9.304;2023-04-25T12:41:55;3.90;;;3.60;;
966;SDS011;56108;48.730;9.304;2023-04-25T12:44:04;5.10;;;4.07;;
966;SDS011;56108;48.730;9.304;2023-04-25T12:46:12;4.75;;;4.35;;
966;SDS011;56108;48.730;9.304;2023-04-25T12:48:23;4.57;;;4.18;;
966;SDS011;56108;48.730;9.304;2023-04-25T12:50:31;5.15;;;4.75;;
966;SDS011;56108;48.730;9.304;2023-04-25T12:52:39;5.75;;;5.25;;
966;SDS011;56108;48.730;9.304;2023-04-25T12:54:47;5.80;;;5.30;;
966;SDS011;56108;48.730;9.304;2023-04-25T12:56:56;5.43;;;4.93;;
966;SDS011;56108;48.730;9.304;2023-04-25T12:59:04;6.07;;;5.35;;
966;SDS011;56108;48.730;9.304;2023-04-25T13:01:11;6.03;;;5.53;;
966;SDS011;56108;48.730;9.304;2023-04-25T13:03:20;6.20;;;5.70;;
966;SDS011;56108;48.730;9.304;2023-04-25T13:05:30;5.60;;;5.10;;
966;SDS011;56108;48.730;9.304;2023-04-25T13:07:39;6.50;;;5.85;;
966;SDS011;56108;48.730;9.304;2023-04-25T13:09:47;6.82;;;6.13;;
966;SDS011;56108;48.730;9.304;2023-04-25T13:11:55;6.63;;;6.03;;
966;SDS011;56108;48.730;9.304;2023-04-25T13:14:04;6.05;;;5.45;;
966;SDS011;56108;48.730;9.304;2023-04-25T13:16:13;6.35;;;5.78;;
966;SDS011;56108;48.730;9.304;2023-04-25T13:18:24;6.57;;;5.97;;
966;SDS011;56108;48.730;9.304;2023-04-25T13:20:32;6.05;;;5.55;;
966;SDS011;56108;48.730;9.304;2023-04-25T13:22:41;6.22;;;5.20;;
966;SDS011;56108;48.730;9.304;2023-04-25T13:24:50;5.78;;;5.28;;
966;SDS011;56108;48.730;9.304;2023-04-25T13:26:58;5.70;;;5.20;;
966;SDS011;56108;48.730;9.304;2023-04-25T13:29:06;6.15;;;5.60;;
966;SDS011;56108;48.730;9.304;2023-04-25T13:31:14;5.60;;;5.10;;
966;SDS011;56108;48.730;9.304;2023-04-25T13:33:26;6.90;;;5.93;;
966;SDS011;56108;48.730;9.304;2023-04-25T13:35:34;6.65;;;6.05;;
966;SDS011;56108;48.730;9.304;2023-04-25T13:37:43;6.85;;;5.80;;
966;SDS011;56108;48.730;9.304;2023-04-25T13:39:52;6.30;;;5.70;;
966;SDS011;56108;48.730;9.304;2023-04-25T13:42:01;7.22;;;6.53;;
966;SDS011;56108;48.730;9.304;2023-04-25T13:44:09;6.60;;;6.00;;